createdAt,value
2018-01-13T08:24:34.994Z,17.13
2018-01-13T08:27:07.631Z,18.60
2018-01-13T08:29:39.528Z,17.00
2018-01-13T08:32:11.398Z,17.73
2018-01-13T08:34:44.047Z,17.00
2018-01-13T08:37:15.922Z,18.20
2018-01-13T08:39:47.812Z,17.80
2018-01-13T08:42:20.447Z,18.30
2018-01-13T08:44:52.330Z,17.37
2018-01-13T08:47:24.983Z,16.97
2018-01-13T08:49:56.862Z,16.63
2018-01-13T08:52:28.749Z,16.27
2018-01-13T08:55:01.582Z,17.00
2018-01-13T08:57:33.446Z,16.37
2018-01-13T09:00:05.322Z,16.63
2018-01-13T09:02:37.193Z,15.83
2018-01-13T09:05:10.003Z,15.83
2018-01-13T09:07:41.874Z,17.40
2018-01-13T09:10:13.958Z,18.47
2018-01-13T09:12:45.830Z,19.20
2018-01-13T09:15:17.722Z,18.83
2018-01-13T09:17:50.358Z,17.40
2018-01-13T09:20:22.254Z,17.90
2018-01-13T09:22:54.122Z,17.30
2018-01-13T09:25:26.963Z,18.23
2018-01-13T09:27:58.850Z,17.83
2018-01-13T09:30:30.742Z,17.93
2018-01-13T09:33:02.613Z,17.30
2018-01-13T09:35:34.491Z,18.43
2018-01-13T09:38:06.354Z,19.07
2018-01-13T09:40:38.243Z,18.63
2018-01-13T09:43:10.115Z,18.17
2018-01-13T09:45:42.010Z,15.93
2018-01-13T09:48:13.894Z,17.00
2018-01-13T09:50:45.777Z,17.87
2018-01-13T09:53:17.646Z,17.27
2018-01-13T09:55:49.547Z,17.67
2018-01-13T09:58:21.411Z,18.10
2018-01-13T10:00:53.323Z,17.63
2018-01-13T10:03:25.202Z,17.70
2018-01-13T10:05:57.859Z,17.47
2018-01-13T10:08:29.731Z,17.73
2018-01-13T10:11:01.624Z,16.47
2018-01-13T10:13:33.498Z,15.50
2018-01-13T10:16:05.390Z,14.93
2018-01-13T10:18:37.266Z,15.20
2018-01-13T10:21:09.162Z,14.80
2018-01-13T10:23:41.035Z,14.77
2018-01-13T10:26:12.919Z,15.93
2018-01-13T10:28:44.809Z,14.30
2018-01-13T10:31:16.686Z,14.63
2018-01-13T10:33:49.319Z,14.53
2018-01-13T10:36:21.218Z,12.63
2018-01-13T10:38:53.923Z,13.60
2018-01-13T10:41:26.018Z,14.20
2018-01-13T10:43:57.878Z,14.43
2018-01-13T10:46:29.780Z,12.97
2018-01-13T10:49:02.416Z,13.57
2018-01-13T10:51:34.309Z,14.20
2018-01-13T10:54:06.183Z,13.57
2018-01-13T10:56:38.838Z,13.77
2018-01-13T10:59:10.945Z,15.17
2018-01-13T11:01:42.840Z,14.13
2018-01-13T11:04:14.706Z,13.87
2018-01-13T11:06:47.382Z,13.87
2018-01-13T11:09:19.502Z,14.33
2018-01-13T11:11:51.406Z,13.00
2018-01-13T11:14:23.274Z,13.40
2018-01-13T11:16:55.180Z,13.70
2018-01-13T11:19:27.862Z,13.50
2018-01-13T11:22:00.523Z,13.93
2018-01-13T11:24:33.162Z,14.17
2018-01-13T11:27:05.044Z,11.40
2018-01-13T11:29:36.919Z,12.20
2018-01-13T11:32:09.315Z,11.97
2018-01-13T11:34:41.186Z,14.27
2018-01-13T11:37:13.074Z,13.17
2018-01-13T11:39:44.946Z,12.50
2018-01-13T11:42:17.111Z,12.17
2018-01-13T11:44:49.223Z,12.47
2018-01-13T11:47:21.111Z,12.30
2018-01-13T11:49:52.982Z,12.37
2018-01-13T11:52:25.055Z,11.67
2018-01-13T11:54:56.957Z,11.17
2018-01-13T11:57:29.619Z,11.83
2018-01-13T12:00:01.483Z,13.30
2018-01-13T12:02:33.616Z,11.97
2018-01-13T12:05:05.485Z,12.90
2018-01-13T12:07:37.387Z,12.00
2018-01-13T12:10:10.026Z,11.17
2018-01-13T12:12:41.923Z,12.27
2018-01-13T12:15:14.559Z,11.17
2018-01-13T12:17:46.456Z,11.40
2018-01-13T12:20:19.091Z,11.20
2018-01-13T12:22:50.981Z,14.23
2018-01-13T12:25:22.855Z,11.37
2018-01-13T12:27:55.519Z,12.23
2018-01-13T12:30:27.417Z,11.27
2018-01-13T12:32:59.314Z,11.43
2018-01-13T12:35:31.187Z,10.27
2018-01-13T12:38:03.138Z,8.80
2018-01-13T12:40:35.016Z,8.80
2018-01-13T12:43:06.914Z,9.00
2018-01-13T12:45:38.791Z,9.07
2018-01-13T12:48:10.682Z,8.80
2018-01-13T12:50:42.551Z,9.57
2018-01-13T12:53:14.455Z,8.53
2018-01-13T12:55:46.327Z,9.13
2018-01-13T12:58:18.227Z,9.23
2018-01-13T13:00:50.096Z,9.13
2018-01-13T13:03:22.241Z,7.97
2018-01-13T13:05:54.115Z,7.70
2018-01-13T13:08:26.047Z,7.47
2018-01-13T13:10:57.927Z,8.10
2018-01-13T13:13:29.818Z,8.40
2018-01-13T13:16:02.452Z,8.30
2018-01-13T13:18:34.343Z,7.63
2018-01-13T13:21:06.214Z,7.83
2018-01-13T13:23:38.910Z,8.10
2018-01-13T13:26:11.534Z,8.43
2018-01-13T13:28:43.434Z,8.40
2018-01-13T13:31:16.062Z,7.20
2018-01-13T13:33:48.294Z,8.03
2018-01-13T13:36:20.166Z,7.93
2018-01-13T13:38:52.258Z,8.77
2018-01-13T13:41:24.131Z,8.40
2018-01-13T13:43:56.011Z,7.50
2018-01-13T13:46:27.884Z,8.47
2018-01-13T13:49:00.738Z,7.53
2018-01-13T13:51:32.631Z,7.47
2018-01-13T13:54:05.281Z,8.33
2018-01-13T13:56:37.168Z,8.17
2018-01-13T13:59:10.002Z,8.07
2018-01-13T14:01:41.876Z,8.23
2018-01-13T14:04:13.766Z,8.63
2018-01-13T14:06:46.407Z,8.43
2018-01-13T14:09:18.300Z,8.20
2018-01-13T14:11:51.021Z,8.30
2018-01-13T14:14:23.073Z,7.70
2018-01-13T14:16:54.955Z,8.20
2018-01-13T14:19:27.039Z,8.07
2018-01-13T14:21:58.917Z,8.50
2018-01-13T14:24:30.814Z,8.23
2018-01-13T14:27:02.686Z,8.57
2018-01-13T14:29:34.782Z,8.53
2018-01-13T14:32:06.654Z,8.67
2018-01-13T14:34:38.535Z,9.53
2018-01-13T14:37:11.163Z,9.77
2018-01-13T14:39:43.064Z,9.63
2018-01-13T14:42:14.924Z,8.87
2018-01-13T14:44:46.806Z,9.93
2018-01-13T14:47:19.447Z,9.30
2018-01-13T14:49:51.562Z,10.27
2018-01-13T14:52:23.424Z,9.50
2018-01-13T14:54:55.315Z,9.03
2018-01-13T14:57:27.195Z,10.67
2018-01-13T14:59:59.078Z,10.70
2018-01-13T15:02:31.710Z,9.70
2018-01-13T15:05:03.597Z,10.30
2018-01-13T15:07:35.462Z,10.03
2018-01-13T15:10:07.364Z,10.10
2018-01-13T15:12:39.231Z,9.73
2018-01-13T15:15:11.118Z,10.80
2018-01-13T15:17:43.243Z,9.57
2018-01-13T15:20:15.138Z,10.37
2018-01-13T15:22:47.009Z,10.03
2018-01-13T15:25:18.891Z,9.80
2018-01-13T15:27:50.763Z,9.70
2018-01-13T15:30:23.423Z,8.80
2018-01-13T15:32:55.281Z,9.87
2018-01-13T15:35:27.179Z,9.87
2018-01-13T15:37:59.838Z,9.53
2018-01-13T15:40:32.483Z,10.57
2018-01-13T15:43:04.356Z,10.47
2018-01-13T15:45:36.253Z,10.27
2018-01-13T15:48:08.886Z,10.87
2018-01-13T15:50:40.897Z,10.87
2018-01-13T15:53:13.527Z,11.87
2018-01-13T15:55:45.410Z,11.57
2018-01-13T15:58:18.058Z,11.70
2018-01-13T16:00:49.951Z,12.50
2018-01-13T16:03:21.828Z,11.60
2018-01-13T16:05:54.492Z,13.00
2018-01-13T16:08:27.131Z,11.47
2018-01-13T16:10:59.015Z,11.83
2018-01-13T16:13:30.889Z,11.80
2018-01-13T16:16:03.589Z,11.63
2018-01-13T16:18:35.460Z,12.83
2018-01-13T16:21:07.351Z,13.27
2018-01-13T16:23:39.215Z,13.27
2018-01-13T16:26:11.117Z,12.57
2018-01-13T16:28:43.794Z,13.03
2018-01-13T16:31:16.455Z,14.00
2018-01-13T16:33:48.340Z,13.13
2018-01-13T16:36:20.996Z,14.40
2018-01-13T16:38:52.866Z,14.00
2018-01-13T16:41:25.530Z,12.50
2018-01-13T16:43:57.411Z,12.63
2018-01-13T16:46:30.247Z,14.10
2018-01-13T16:49:02.121Z,12.23
2018-01-13T16:51:34.004Z,14.47
2018-01-13T16:54:06.864Z,14.30
2018-01-13T16:56:39.014Z,15.13
2018-01-13T16:59:10.890Z,13.43
2018-01-13T17:01:42.779Z,14.30
2018-01-13T17:04:15.424Z,13.13
2018-01-13T17:06:47.324Z,13.97
2018-01-13T17:09:19.955Z,15.70
2018-01-13T17:11:51.859Z,15.70
2018-01-13T17:14:24.504Z,15.23
2018-01-13T17:16:56.658Z,15.67
2018-01-13T17:19:28.531Z,15.47
2018-01-13T17:22:00.427Z,14.23
2018-01-13T17:24:33.059Z,13.57
2018-01-13T17:27:04.938Z,12.93
2018-01-13T17:29:36.811Z,12.93
2018-01-13T17:32:09.533Z,13.93
2018-01-13T17:34:41.356Z,13.33
2018-01-13T17:37:14.014Z,14.47
2018-01-13T17:39:45.887Z,14.10
2018-01-13T17:42:18.019Z,15.47
2018-01-13T17:44:49.902Z,15.57
2018-01-13T17:47:21.783Z,15.03
2018-01-13T17:49:54.420Z,15.27
2018-01-13T17:52:26.311Z,18.60
2018-01-13T17:54:58.986Z,15.47
2018-01-13T17:57:30.973Z,14.83
2018-01-13T18:00:03.594Z,16.00
2018-01-13T18:02:35.517Z,16.60
2018-01-13T18:05:08.144Z,14.80
2018-01-13T18:07:40.047Z,15.80
2018-01-13T18:10:12.680Z,15.53
2018-01-13T18:12:44.570Z,14.97
2018-01-13T18:15:17.203Z,14.00
2018-01-13T18:17:49.278Z,14.63
2018-01-13T18:20:21.150Z,13.90
2018-01-13T18:22:53.042Z,14.03
2018-01-13T18:25:25.680Z,14.53
2018-01-13T18:27:57.583Z,13.53
2018-01-13T18:30:30.222Z,15.00
2018-01-13T18:33:02.110Z,14.33
2018-01-13T18:35:34.742Z,12.67
2018-01-13T18:38:06.640Z,14.60
2018-01-13T18:40:38.520Z,11.00
2018-01-13T18:43:11.170Z,13.83
2018-01-13T18:45:43.053Z,14.80
2018-01-13T18:48:15.735Z,14.03
2018-01-13T18:50:48.366Z,13.63
2018-01-13T18:53:20.252Z,14.23
2018-01-13T18:55:52.122Z,14.17
2018-01-13T18:58:24.794Z,13.73
2018-01-13T19:00:56.662Z,14.97
2018-01-13T19:03:29.327Z,14.00
2018-01-13T19:06:01.195Z,14.60
2018-01-13T19:08:33.858Z,13.90
2018-01-13T19:11:05.722Z,13.63
2018-01-13T19:13:37.834Z,12.90
2018-01-13T19:16:09.711Z,13.97
2018-01-13T19:18:41.609Z,14.53
2018-01-13T19:21:13.476Z,12.60
2018-01-13T19:23:46.146Z,13.60
2018-01-13T19:26:18.015Z,14.13
2018-01-13T19:28:49.915Z,13.33
2018-01-13T19:31:21.795Z,13.53
2018-01-13T19:33:53.737Z,14.17
2018-01-13T19:36:25.607Z,14.70
2018-01-13T19:38:57.522Z,12.30
2018-01-13T19:41:30.158Z,13.27
2018-01-13T19:44:02.063Z,13.63
2018-01-13T19:46:34.698Z,13.97
2018-01-13T19:49:06.591Z,14.77
2018-01-13T19:51:38.459Z,14.60
2018-01-13T19:54:11.122Z,13.13
2018-01-13T19:56:42.996Z,14.43
2018-01-13T19:59:15.842Z,14.33
2018-01-13T20:01:47.967Z,12.90
2018-01-13T20:04:19.867Z,13.57
2018-01-13T20:06:51.739Z,14.53
2018-01-13T20:09:23.635Z,13.70
2018-01-13T20:11:56.271Z,13.20
2018-01-13T20:14:28.442Z,13.20
2018-01-13T20:17:00.311Z,13.00
2018-01-13T20:19:32.204Z,13.20
2018-01-13T20:22:04.838Z,13.80
2018-01-13T20:24:36.734Z,13.67
2018-01-13T20:27:09.367Z,14.50
2018-01-13T20:29:41.257Z,15.50
2018-01-13T20:32:13.130Z,13.40
2018-01-13T20:34:45.782Z,14.07
2018-01-13T20:37:17.654Z,12.67
2018-01-13T20:39:49.547Z,14.87
2018-01-13T20:42:21.414Z,13.87
2018-01-13T20:44:53.302Z,14.47
2018-01-13T20:47:25.183Z,16.23
2018-01-13T20:49:57.330Z,14.87
2018-01-13T20:52:29.199Z,15.77
2018-01-13T20:55:01.868Z,16.43
2018-01-13T20:57:33.735Z,15.07
2018-01-13T21:00:05.630Z,14.83
2018-01-13T21:02:38.263Z,14.63
2018-01-13T21:05:10.145Z,14.43
2018-01-13T21:07:42.250Z,13.80
2018-01-13T21:10:14.151Z,14.10
2018-01-13T21:12:46.019Z,14.57
2018-01-13T21:15:18.078Z,13.73
2018-01-13T21:17:49.944Z,14.07
2018-01-13T21:20:21.835Z,14.67
